Condiciones actuales en los principales Aeropuertos de España-Datos Metar

 

LEAL - Alicante
Actualización: 09/12/2022 15:30
Lluvia débil, Poco nuboso
Lluvia débil, Poco nuboso
 Viento del varies
Viento: varies 2 km/h
Temperatura: 18°C
Rocío: 14°C
Humedad: 78%
Barómetro: 1000 hPa
Resumen: Light Rain
Nubosidad: Few Clouds
Visibilidad: 10 km
Cloud details: Few Clouds 671 m
2022/12/09 14:30 LEAL 091430Z VRB01KT 9999 -RA FEW022 18/14 Q1000 NOSIG
LEAB - Albacete
Actualización: 09/12/2022 15:30
Few Clouds
Few Clouds
 Viento del SSO
Viento: SSO 6 km/h
Temperatura: 12°C
Rocío: 9°C
Humedad: 82%
Barómetro: 1001 hPa
Nubosidad: Few Clouds
Visibilidad: 10 km
Cloud details: Few Clouds 1372 m
2022/12/09 14:30 LEAB 091430Z 21003KT 160V250 9999 FEW045 12/09 Q1001 NOSIG
LEAM - Almería
Actualización: 09/12/2022 15:30
Lluvia débil, Muy nuboso
Lluvia débil, Muy nuboso
 Viento del SO
Viento: SO 9 km/h
Temperatura: 16°C
Rocío: 14°C
Humedad: 88%
Barómetro: 1003 hPa
Resumen: Light Rain
Nubosidad: Mostly Cloudy
Visibilidad: 10 km
Cloud details: Partly Cloudy 762 m
Mostly Cloudy 1067 m
Mostly Cloudy 2134 m
2022/12/09 14:30 LEAM 091430Z 22005KT 190V270 9999 -RA SCT025 BKN035 BKN070 16/14 Q1003
 
LEAS - Asturias/Aviles
Actualización: 09/12/2022 15:30
LLuvia, Cubierto
LLuvia, Cubierto
 Viento del varies
Viento: varies 13 km/h
Temperatura: 9°C
Wind Chill: 7°C
Rocío: 9°C
Humedad: 100%
Barómetro: 1002 hPa
Resumen: LLuvia
Nubosidad: Cubierto
Visibilidad: 3 km
Cloud details: Mostly Cloudy 183 m
Mostly Cloudy 274 m
Cubierto 366 m
2022/12/09 14:30 LEAS 091430Z VRB07KT 3000 RA BKN006 BKN009 OVC012 09/09 Q1002 NOSIG
LEBZ - Badajoz/Talavera la Real
Actualización: 09/12/2022 15:30
Mostly Cloudy
Mostly Cloudy
 Viento del SO
Viento: SO 20 km/h
Temperatura: 17°C
Rocío: 14°C
Humedad: 83%
Barómetro: 997 hPa
Nubosidad: Mostly Cloudy
Visibilidad: 10 km
Cloud details: Partly Cloudy 488 m
Mostly Cloudy 701 m
2022/12/09 14:30 LEBZ 091430Z 23011KT 9999 SCT016 BKN023 17/14 Q0997
LEBL - Barcelona
Actualización: 09/12/2022 15:30
Few Clouds
Few Clouds
 Viento del SO
Viento: SO 26 km/h
Temperatura: 17°C
Rocío: 10°C
Humedad: 64%
Barómetro: 998 hPa
Nubosidad: Few Clouds
Visibilidad: 10 km
Cloud details: Few Clouds 762 m
2022/12/09 14:30 LEBL 091430Z 23014KT 9999 FEW025 17/10 Q0998 NOSIG
 
LEBB - Bilbao
Actualización: 09/12/2022 15:30
Mostly Cloudy
Mostly Cloudy
 Viento del ENE
Viento: ENE 9 km/h
Temperatura: 12°C
Rocío: 11°C
Humedad: 94%
Barómetro: 1000 hPa
Nubosidad: Mostly Cloudy
Visibilidad: 6 km
Cloud details: Mostly Cloudy 244 m
Mostly Cloudy 701 m
2022/12/09 14:30 LEBB 091430Z 06005KT 010V110 6000 BKN008 BKN023 12/11 Q1000 NOSIG
LEBG - Burgos/Villafría
Actualización: 09/12/2022 15:30
Lluvia débil, Muy nuboso
Lluvia débil, Muy nuboso
 Viento del N
Viento: N 9 km/h
Temperatura: 8°C
Wind Chill: 6°C
Rocío: 7°C
Humedad: 93%
Barómetro: 998 hPa
Resumen: Light Rain
Nubosidad: Mostly Cloudy
Visibilidad: 9 km
Cloud details: Partly Cloudy 335 m
Mostly Cloudy 610 m
2022/12/09 14:30 LEBG 091430Z 36005KT 9000 -RA SCT011 BKN020 08/07 Q0998
LEBA - Córdoba
Actualización: 09/12/2022 15:30

 Viento del SO
Viento: SO 17 km/h
Visibilidad: 10 km
2022/12/09 14:30 LEBA 091430Z 22009KT 190V250 9999 4500 FEW010 SCT020CB BKN032 14/13 Q1001
 
LEGE - Gerona
Actualización: 09/12/2022 15:30
Few Clouds
Few Clouds
 Viento del NE
Viento: NE 7 km/h
Temperatura: 20°C
Rocío: 9°C
Humedad: 49%
Barómetro: 997 hPa
Nubosidad: Few Clouds
Visibilidad: 10 km
Cloud details: Few Clouds 1219 m
2022/12/09 14:30 LEGE 091430Z 04004KT 350V080 9999 FEW040 20/09 Q0997
LEGR - Granada
Actualización: 09/12/2022 15:45
LLuvia, Muy nuboso
LLuvia, Muy nuboso
 Viento del ESE
Viento: ESE 9 km/h
Temperatura: 11°C
Rocío: 11°C
Humedad: 100%
Barómetro: 1003 hPa
Resumen: LLuvia
Nubosidad: Mostly Cloudy
Visibilidad: 2 km
Cloud details: Mostly Cloudy 671 m
Mostly Cloudy 914 m
2022/12/09 14:45 LEGR 091445Z 11005KT 080V140 2000 RA BKN022 BKN030 11/11 Q1003
GCHI - Hierro
Actualización: 09/12/2022 15:30
Partly Cloudy
Partly Cloudy
 Viento del calm
Viento: Calma
Temperatura: 24°C
Rocío: 18°C
Humedad: 69%
Barómetro: 1014 hPa
Nubosidad: Partly Cloudy
Visibilidad: 10 km
Cloud details: Few Clouds 671 m
Partly Cloudy 1311 m
2022/12/09 14:30 GCHI 091430Z 00000KT 9999 FEW022 SCT043 24/18 Q1014
 
LEIB - Ibiza
Actualización: 09/12/2022 15:30
Cubierto
Cubierto
 Viento del SO
Viento: SO 22 km/h
Temperatura: 18°C
Rocío: 15°C
Humedad: 83%
Barómetro: 1001 hPa
Nubosidad: Cubierto
Visibilidad: 10 km
Cloud details: Mostly Cloudy 427 m
Cubierto 549 m
2022/12/09 14:30 LEIB 091430Z 23012KT 200V260 9999 BKN014 OVC018 18/15 Q1001 NOSIG
LEJR - Jerez de la Frontera
Actualización: 09/12/2022 15:30
Few Clouds
Few Clouds
 Viento del SO
Viento: SO 31 km/h
Temperatura: 17°C
Rocío: 15°C
Humedad: 88%
Barómetro: 1001 hPa
Nubosidad: Few Clouds
Visibilidad: 6 km
Cloud details: Partly Cloudy 427 m
Mostly Cloudy 671 m
Few Clouds 914 m
2022/12/09 14:30 LEJR 091430Z 23017KT 6000 R20/1000N SCT014 BKN022 FEW030CB 17/15 Q1001 RESHRA
LECO - A Coruña
Actualización: 09/12/2022 15:30
Mostly Cloudy
Mostly Cloudy
 Viento del NNE
Viento: NNE 19 km/h
Temperatura: 11°C
Rocío: 8°C
Humedad: 82%
Barómetro: 1002 hPa
Nubosidad: Mostly Cloudy
Visibilidad: 10 km
Cloud details: Mostly Cloudy 457 m
Mostly Cloudy 762 m
2022/12/09 14:30 LECO 091430Z 03010KT 330V070 9999 BKN015 BKN025 11/08 Q1002 NOSIG
 
GCLA - La Palma
Actualización: 09/12/2022 15:30
Partly Cloudy
Partly Cloudy
 Viento del NNO
Viento: NNO 9 km/h
Temperatura: 24°C
Rocío: 17°C
Humedad: 65%
Barómetro: 1013 hPa
Nubosidad: Partly Cloudy
Visibilidad: 10 km
Cloud details: Partly Cloudy 1372 m
2022/12/09 14:30 GCLA 091430Z 34005KT 300V020 9999 SCT045 24/17 Q1013
GCRR - Lanzarote
Actualización: 09/12/2022 15:30
Partly Cloudy
Partly Cloudy
 Viento del OSO
Viento: OSO 20 km/h, Racha: 39 km/h
Temperatura: 24°C
Rocío: 18°C
Humedad: 69%
Barómetro: 1014 hPa
Nubosidad: Partly Cloudy
Visibilidad: 10 km
Cloud details: Few Clouds 762 m
Partly Cloudy 1372 m
2022/12/09 14:30 GCRR 091430Z 24011G21KT 200V270 9999 FEW025 SCT045 24/18 Q1014
GCLP - Las Palmas
Actualización: 09/12/2022 15:30
Few Clouds
Few Clouds
 Viento del NNE
Viento: NNE 9 km/h
Temperatura: 24°C
Rocío: 18°C
Humedad: 69%
Barómetro: 1014 hPa
Nubosidad: Few Clouds
Visibilidad: 10 km
Cloud details: Few Clouds 762 m
2022/12/09 14:30 GCLP 091430Z 03005KT 340V070 9999 FEW025 24/18 Q1014 NOSIG
 
LELN - León
Actualización: 09/12/2022 15:30
Partly Cloudy
Partly Cloudy
 Viento del varies
Viento: varies 2 km/h
Temperatura: 8°C
Rocío: 6°C
Humedad: 87%
Barómetro: 998 hPa
Nubosidad: Partly Cloudy
Visibilidad: 10 km
Cloud details: Partly Cloudy 457 m
2022/12/09 14:30 LELN 091430Z VRB01KT 9999 SCT015 08/06 Q0998
LELO - Logroño
Actualización: 09/12/2022 15:30
Lluvia débil, Muy nuboso
Lluvia débil, Muy nuboso
 Viento del ESE
Viento: ESE 6 km/h
Temperatura: 10°C
Rocío: 8°C
Humedad: 88%
Barómetro: 999 hPa
Resumen: Light Rain
Nubosidad: Mostly Cloudy
Visibilidad: 8 km
Cloud details: Few Clouds 213 m
Mostly Cloudy 1829 m
2022/12/09 14:30 LELO 091430Z 12003KT 8000 -RA FEW007 BKN060 10/08 Q0999
LECV - Madrid/Colmenar
Actualización: 09/12/2022 15:30
Lluvia débil, Muy nuboso
Lluvia débil, Muy nuboso
 Viento del varies
Viento: varies 2 km/h
Temperatura: 7°C
Rocío: 7°C
Humedad: 100%
Barómetro: 998 hPa
Resumen: Light Rain
Nubosidad: Mostly Cloudy
Visibilidad: 5 km
Cloud details: Mostly Cloudy 91 m
2022/12/09 14:30 LECV 091430Z VRB01KT 5000 -RA BKN003 07/07 Q0998
 
LEMD - Madrid/Barajas
Actualización: 09/12/2022 15:30
Lluvia débil, Muy nuboso
Lluvia débil, Muy nuboso
 Viento del varies
Viento: varies 2 km/h
Temperatura: 11°C
Rocío: 10°C
Humedad: 94%
Barómetro: 998 hPa
Resumen: Light Rain
Nubosidad: Mostly Cloudy
Visibilidad: 10 km
Cloud details: Few Clouds 305 m
Partly Cloudy 671 m
Mostly Cloudy 1524 m
2022/12/09 14:30 LEMD 091430Z VRB01KT 9999 -RA FEW010 SCT022 BKN050 11/10 Q0998 NOSIG
LEVS - Madrid/Cuatro Vientos
Actualización: 09/12/2022 15:30
Light drizzle, Cubierto
Light drizzle, Cubierto
 Viento del varies
Viento: varies 4 km/h
Temperatura: 11°C
Rocío: 9°C
Humedad: 88%
Barómetro: 998 hPa
Resumen: Light Drizzle
Nubosidad: Cubierto
Visibilidad: 6 km
Cloud details: Partly Cloudy 305 m
Mostly Cloudy 518 m
Cubierto 762 m
2022/12/09 14:30 LEVS 091430Z VRB02KT 6000 -DZ SCT010 BKN017 OVC025 11/09 Q0998
LEGT - Madrid/Getafe
Actualización: 09/12/2022 15:30
Lluvia débil, Muy nuboso
Lluvia débil, Muy nuboso
 Viento del SO
Viento: SO 7 km/h
Temperatura: 12°C
Rocío: 9°C
Humedad: 82%
Barómetro: 998 hPa
Resumen: Light Rain
Nubosidad: Mostly Cloudy
Visibilidad: 10 km
Cloud details: Few Clouds 274 m
Partly Cloudy 396 m
Mostly Cloudy 549 m
2022/12/09 14:30 LEGT 091430Z 22004KT 180V280 9999 -RA FEW009 SCT013 BKN018 12/09 Q0998
 
LETO - Madrid/Torrejón
Actualización: 09/12/2022 15:30
Lluvia débil, Muy nuboso
Lluvia débil, Muy nuboso
 Viento del calm
Viento: Calma
Temperatura: 11°C
Rocío: 10°C
Humedad: 94%
Barómetro: 998 hPa
Resumen: Light Rain
Nubosidad: Mostly Cloudy
Visibilidad: 10 km
Cloud details: Partly Cloudy 335 m
Mostly Cloudy 914 m
2022/12/09 14:30 LETO 091430Z 00000KT 9999 -RA SCT011 BKN030 11/10 Q0998 NOSIG
LEMG - Málaga
Actualización: 09/12/2022 15:30
Mostly Cloudy
Mostly Cloudy
 Viento del OSO
Viento: OSO 7 km/h, Racha: 28 km/h
Temperatura: 17°C
Rocío: 14°C
Humedad: 83%
Barómetro: 1002 hPa
Nubosidad: Mostly Cloudy
Visibilidad: 10 km
Cloud details: Few Clouds 610 m
Partly Cloudy 1067 m
Mostly Cloudy 1219 m
2022/12/09 14:30 LEMG 091430Z 24004G15KT 9999 FEW020 SCT035TCU BKN040 17/14 Q1002 TEMPO 4000 SHRA
GEML - Melilla
Actualización: 09/12/2022 15:30
Despejado
Despejado
 Viento del varies
Viento: varies 4 km/h
Temperatura: 20°C
Rocío: 14°C
Humedad: 69%
Barómetro: 1004 hPa
Resumen: Despejado
Visibilidad: greater than 10 km
2022/12/09 14:30 GEML 091430Z VRB02KT CAVOK 20/14 Q1004
 
LEMH - Mahón
Actualización: 09/12/2022 15:30
Few Clouds
Few Clouds
 Viento del SO
Viento: SO 17 km/h
Temperatura: 18°C
Rocío: 16°C
Humedad: 88%
Barómetro: 1000 hPa
Nubosidad: Few Clouds
Visibilidad: 10 km
Cloud details: Few Clouds 244 m
2022/12/09 14:30 LEMH 091430Z 23009KT 200V270 9999 FEW008 18/16 Q1000
LEMO - Morón de La Frontera
Actualización: 09/12/2022 15:30
Nearby thunderstorm, Poco nuboso
Nearby thunderstorm, Poco nuboso
 Viento del OSO
Viento: OSO 17 km/h
Temperatura: 15°C
Rocío: 13°C
Humedad: 88%
Barómetro: 1000 hPa
Resumen: Nearby Thunderstorm
Nubosidad: Few Clouds
Visibilidad: 10 km
Cloud details: Few Clouds 1615 m
2022/12/09 14:30 LEMO 091430Z 24009KT 200V260 9999 VCTS FEW053CB 15/13 Q1000 NOSIG
LEMI - Murcia/Corvera
Actualización: 09/12/2022 15:30
Despejado
Despejado
 Viento del SSO
Viento: SSO 19 km/h
Temperatura: 18°C
Rocío: 13°C
Humedad: 73%
Barómetro: 1001 hPa
Resumen: Despejado
Visibilidad: greater than 10 km
2022/12/09 14:30 LEMI 091430Z 21010KT CAVOK 18/13 Q1001
 
LERI - Murcia/Alcantarilla
Actualización: 09/12/2022 15:30
Partly Cloudy
Partly Cloudy
 Viento del SO
Viento: SO 19 km/h
Temperatura: 20°C
Rocío: 11°C
Humedad: 56%
Barómetro: 1000 hPa
Nubosidad: Partly Cloudy
Visibilidad: 10 km
Cloud details: Few Clouds 914 m
Partly Cloudy 1890 m
2022/12/09 14:30 LERI 091430Z 23010KT 200V260 9999 FEW030 SCT062 20/11 Q1000 NOSIG
LELC - Murcia/San Javier
Actualización: 09/12/2022 15:30
Despejado
Despejado
 Viento del SSO
Viento: SSO 24 km/h
Temperatura: 20°C
Rocío: 15°C
Humedad: 73%
Barómetro: 1001 hPa
Resumen: Despejado
Visibilidad: greater than 10 km
2022/12/09 14:30 LELC 091430Z 21013KT 170V240 CAVOK 20/15 Q1001 NOSIG
LEPA - Palma de Mallorca
Actualización: 09/12/2022 15:30
Few Clouds
Few Clouds
 Viento del OSO
Viento: OSO 11 km/h
Temperatura: 18°C
Rocío: 16°C
Humedad: 88%
Barómetro: 1000 hPa
Nubosidad: Few Clouds
Visibilidad: 10 km
Cloud details: Few Clouds 610 m
2022/12/09 14:30 LEPA 091430Z 24006KT 9999 FEW020 18/16 Q1000 NOSIG
 
LEPP - Pamplona
Actualización: 09/12/2022 15:30
Mostly Cloudy
Mostly Cloudy
 Viento del SO
Viento: SO 2 km/h
Temperatura: 12°C
Rocío: 7°C
Humedad: 72%
Barómetro: 999 hPa
Nubosidad: Mostly Cloudy
Visibilidad: 10 km
Cloud details: Partly Cloudy 732 m
Mostly Cloudy 1768 m
2022/12/09 14:30 LEPP 091430Z 23001KT 9999 SCT024 BKN058 12/07 Q0999
LERS - Reus
Actualización: 09/12/2022 15:30
Few Clouds
Few Clouds
 Viento del O
Viento: O 11 km/h
Temperatura: 19°C
Rocío: 8°C
Humedad: 49%
Barómetro: 999 hPa
Nubosidad: Few Clouds
Visibilidad: 10 km
Cloud details: Few Clouds 1219 m
2022/12/09 14:30 LERS 091430Z 27006KT 220V300 9999 FEW040 19/08 Q0999
LERT - Rota
Actualización: 09/12/2022 15:30
Few Clouds
Few Clouds
 Viento del OSO
Viento: OSO 35 km/h
Temperatura: 19°C
Rocío: 16°C
Humedad: 83%
Barómetro: 1001 hPa
Nubosidad: Few Clouds
Visibilidad: 10 km
Cloud details: Few Clouds 671 m
2022/12/09 14:30 LERT 091430Z 24019KT 9999 FEW022TCU 19/16 Q1001 NOSIG
 
LELL - Sabadell
Actualización: 09/12/2022 15:30
Few Clouds
Few Clouds
 Viento del O
Viento: O 17 km/h
Temperatura: 18°C
Rocío: 8°C
Humedad: 52%
Barómetro: 999 hPa
Nubosidad: Few Clouds
Visibilidad: 10 km
Cloud details: Few Clouds 1067 m
2022/12/09 14:30 LELL 091430Z 27009KT 240V300 9999 FEW035 18/08 Q0999
LESA - Salamanca
Actualización: 09/12/2022 15:30
LLuvia, Cubierto
LLuvia, Cubierto
 Viento del varies
Viento: varies 2 km/h
Temperatura: 9°C
Rocío: 8°C
Humedad: 94%
Barómetro: 998 hPa
Resumen: LLuvia
Nubosidad: Cubierto
Visibilidad: 8 km
Cloud details: Mostly Cloudy 335 m
Mostly Cloudy 488 m
Cubierto 1219 m
2022/12/09 14:30 LESA 091430Z VRB01KT 8000 RA BKN011 BKN016 OVC040 09/08 Q0998
LESO - San Sebastián
Actualización: 09/12/2022 15:30
Light drizzle, Cubierto
Light drizzle, Cubierto
 Viento del N
Viento: N 7 km/h
Temperatura: 12°C
Rocío: 11°C
Humedad: 94%
Barómetro: 1000 hPa
Resumen: Light Drizzle
Nubosidad: Cubierto
Visibilidad: 4 km
Cloud details: Mostly Cloudy 152 m
Cubierto 274 m
2022/12/09 14:30 LESO 091430Z 01004KT 330V060 4000 -DZ BKN005 OVC009 12/11 Q1000
 
LEXJ - Santander
Actualización: 09/12/2022 15:30
Lluvia débil, Cubierto
Lluvia débil, Cubierto
 Viento del ENE
Viento: ENE 11 km/h
Temperatura: 12°C
Rocío: 11°C
Humedad: 94%
Barómetro: 1000 hPa
Resumen: Light Rain
Nubosidad: Cubierto
Visibilidad: 2 km
Cloud details: Mostly Cloudy 152 m
Mostly Cloudy 366 m
Cubierto 610 m
2022/12/09 14:30 LEXJ 091430Z 07006KT 010V120 2000 -RA BKN005 BKN012 OVC020 12/11 Q1000
LEPA - Palma de Mallorca
Actualización: 09/12/2022 15:30
Few Clouds
Few Clouds
 Viento del OSO
Viento: OSO 11 km/h
Temperatura: 18°C
Rocío: 16°C
Humedad: 88%
Barómetro: 1000 hPa
Nubosidad: Few Clouds
Visibilidad: 10 km
Cloud details: Few Clouds 610 m
2022/12/09 14:30 LEPA 091430Z 24006KT 9999 FEW020 18/16 Q1000 NOSIG
LEPP - Pamplona
Actualización: 09/12/2022 15:30
Mostly Cloudy
Mostly Cloudy
 Viento del SO
Viento: SO 2 km/h
Temperatura: 12°C
Rocío: 7°C
Humedad: 72%
Barómetro: 999 hPa
Nubosidad: Mostly Cloudy
Visibilidad: 10 km
Cloud details: Partly Cloudy 732 m
Mostly Cloudy 1768 m
2022/12/09 14:30 LEPP 091430Z 23001KT 9999 SCT024 BKN058 12/07 Q0999
 
LEST - Santiago de Compostela
Actualización: 09/12/2022 15:30
Mostly Cloudy
Mostly Cloudy
 Viento del N
Viento: N 17 km/h
Temperatura: 10°C
Wind Chill: 8°C
Rocío: 8°C
Humedad: 88%
Barómetro: 1001 hPa
Nubosidad: Mostly Cloudy
Visibilidad: 10 km
Cloud details: Partly Cloudy 366 m
Mostly Cloudy 610 m
2022/12/09 14:30 LEST 091430Z 01009KT 340V050 9999 SCT012 BKN020 10/08 Q1001 NOSIG
LEZL - Sevilla
Actualización: 09/12/2022 15:30
Despejado
Despejado
 Viento del OSO
Viento: OSO 20 km/h
Temperatura: 18°C
Rocío: 16°C
Humedad: 88%
Barómetro: 999 hPa
Resumen: Despejado
Visibilidad: greater than 10 km
2022/12/09 14:30 LEZL 091430Z 24011KT 200V260 CAVOK 18/16 Q0999 NOSIG
GCXO - Tenerife
Actualización: 09/12/2022 15:30
Few Clouds
Few Clouds
 Viento del SE
Viento: SE 9 km/h
Temperatura: 20°C
Rocío: 15°C
Humedad: 73%
Barómetro: 1016 hPa
Nubosidad: Few Clouds
Visibilidad: 10 km
Cloud details: Few Clouds 366 m
2022/12/09 14:30 GCXO 091430Z 13005KT 090V170 9999 FEW012 20/15 Q1016 NOSIG
 
GCTS - Tenerife-Sur
Actualización: 09/12/2022 15:30
Partly Cloudy
Partly Cloudy
 Viento del O
Viento: O 24 km/h
Temperatura: 24°C
Rocío: 19°C
Humedad: 74%
Barómetro: 1014 hPa
Nubosidad: Partly Cloudy
Visibilidad: 10 km
Cloud details: Partly Cloudy 610 m
2022/12/09 14:30 GCTS 091430Z 26013KT 9999 SCT020 24/19 Q1014 NOSIG
LEVC - Valencia
Actualización: 09/12/2022 15:30
Lluvia débil, Parcialmente nublado
Lluvia débil, Parcialmente nublado
 Viento del SSO
Viento: SSO 11 km/h
Temperatura: 17°C
Rocío: 12°C
Humedad: 73%
Barómetro: 1000 hPa
Resumen: Light Rain
Nubosidad: Partly Cloudy
Visibilidad: 10 km
Cloud details: Few Clouds 914 m
Partly Cloudy 1981 m
2022/12/09 14:30 LEVC 091430Z 21006KT 170V240 9999 -RA FEW030 SCT065 17/12 Q1000 NOSIG
LEVD - Valladolid
Actualización: 09/12/2022 15:30
Cubierto
Cubierto
 Viento del E
Viento: E 7 km/h
Temperatura: 10°C
Wind Chill: 9°C
Rocío: 8°C
Humedad: 88%
Barómetro: 998 hPa
Nubosidad: Cubierto
Visibilidad: 10 km
Cloud details: Partly Cloudy 274 m
Mostly Cloudy 762 m
Cubierto 1219 m
2022/12/09 14:30 LEVD 091430Z 10004KT 050V130 9999 SCT009 BKN025 OVC040 10/08 Q0998
 
LEVX - Vigo
Actualización: 09/12/2022 15:30
Few Clouds
Few Clouds
 Viento del N
Viento: N 22 km/h
Temperatura: 14°C
Rocío: 9°C
Humedad: 72%
Barómetro: 998 hPa
Nubosidad: Few Clouds
Visibilidad: 10 km
Cloud details: Few Clouds 1646 m
2022/12/09 14:30 LEVX 091430Z 01012KT 330V050 9999 FEW054 14/09 Q0998 NOSIG
LEVT - Vitoria
Actualización: 09/12/2022 15:30
Mostly Cloudy
Mostly Cloudy
 Viento del NNE
Viento: NNE 6 km/h
Temperatura: 12°C
Rocío: 8°C
Humedad: 77%
Barómetro: 999 hPa
Nubosidad: Mostly Cloudy
Visibilidad: 10 km
Cloud details: Few Clouds 914 m
Mostly Cloudy 1829 m
2022/12/09 14:30 LEVT 091430Z 03003KT 9999 FEW030 BKN060 12/08 Q0999
LEZG - Zaragoza
Actualización: 09/12/2022 15:30
Light drizzle, LLuvia, Cubierto
Light drizzle, LLuvia, Cubierto
 Viento del ESE
Viento: ESE 9 km/h
Temperatura: 13°C
Rocío: 10°C
Humedad: 82%
Barómetro: 998 hPa
Resumen: Light drizzle, LLuvia
Nubosidad: Cubierto
Visibilidad: 10 km
Cloud details: Few Clouds 1829 m
Cubierto 2438 m
2022/12/09 14:30 LEZG 091430Z 12005KT 9999 -DZRA FEW060 OVC080 13/10 Q0998

La estación de MeteoMurcia.com, publica sus datos en los siguientes proyectos:

Weather Underground PWS IMURCIAP2 Meteoclimatic www.awekas.at

Web Analytics

Clicky